Time;durP1;ratioP1;P1;durP2;ratioP2;P2;SDS_P1;SDS_P2;PMS_P1;PMS_P2;Temp;Humidity;BMP_temperature;BMP_pressure;BME280_temperature;BME280_humidity;BME280_pressure;Samples;Min_cycle;Max_cycle;Signal;HPM_P1;HPM_P2
2023/12/23 00:01:30;;;;;;;12.95;4.75;;;9.70;99.90;;;-144.20;100.00;62730.56;4169682;28;20034;-74
2023/12/23 00:03:31;;;;;;;10.85;3.90;;;9.70;99.90;;;-144.20;100.00;62730.56;4169598;28;20040;-73
2023/12/23 00:05:32;;;;;;;10.18;2.92;;;9.70;99.90;;;-144.20;100.00;62730.56;4169861;28;20037;-73
2023/12/23 00:07:33;;;;;;;6.88;2.15;;;9.70;99.90;;;-144.20;100.00;62730.56;4169706;28;20025;-73
2023/12/23 00:09:34;;;;;;;6.10;2.83;;;9.80;99.90;;;-144.20;100.00;62730.56;4201525;28;20150;-74
2023/12/23 00:11:35;;;;;;;6.13;2.10;;;9.80;99.90;;;-144.20;100.00;62730.56;4165346;28;20034;-74
2023/12/23 00:13:36;;;;;;;11.50;3.38;;;9.80;99.90;;;-144.20;100.00;62730.56;4161589;28;20036;-74
2023/12/23 00:15:37;;;;;;;10.73;2.78;;;9.80;99.90;;;-144.20;100.00;62730.56;4168466;28;20037;-74
2023/12/23 00:17:37;;;;;;;13.75;2.70;;;9.80;99.90;;;-144.20;100.00;62730.56;4167920;28;20043;-74
2023/12/23 00:19:38;;;;;;;6.93;2.20;;;9.80;99.90;;;-144.20;100.00;62730.56;4168403;28;20033;-74
2023/12/23 00:21:39;;;;;;;8.40;2.08;;;9.80;99.90;;;-144.20;100.00;62730.56;4169562;28;20044;-74
2023/12/23 00:23:40;;;;;;;8.57;3.15;;;9.80;99.90;;;-144.20;100.00;62730.56;4168132;28;20095;-74
2023/12/23 00:25:41;;;;;;;9.48;3.60;;;9.80;99.90;;;-144.20;100.00;62730.56;4201106;28;20021;-73
2023/12/23 00:27:42;;;;;;;6.55;2.25;;;9.80;99.90;;;-144.20;100.00;62730.56;4169489;28;20036;-74
2023/12/23 00:29:43;;;;;;;13.43;2.33;;;9.80;99.90;;;-144.20;100.00;62730.56;4169125;28;20021;-73
2023/12/23 00:31:43;;;;;;;9.65;2.47;;;9.80;99.90;;;-144.20;100.00;62730.56;4162969;28;20060;-74
2023/12/23 00:33:47;;;;;;;6.00;1.90;;;9.80;99.90;;;-144.20;100.00;62730.56;4166411;28;20036;-74
2023/12/23 00:35:48;;;;;;;7.35;2.75;;;9.80;99.90;;;-144.20;100.00;62730.56;4169376;28;20083;-73
2023/12/23 00:37:49;;;;;;;6.68;2.20;;;9.80;99.90;;;-144.20;100.00;62730.56;4169337;28;20034;-74
2023/12/23 00:39:50;;;;;;;7.03;2.53;;;9.80;99.90;;;-144.20;100.00;62730.56;4169282;28;20041;-74
2023/12/23 00:41:51;;;;;;;10.48;2.45;;;9.80;99.90;;;-144.20;100.00;62730.56;4167825;28;20085;-73
2023/12/23 00:43:52;;;;;;;10.95;1.90;;;9.80;99.90;;;-144.20;100.00;62730.56;4169235;28;20025;-73
2023/12/23 00:45:55;;;;;;;8.60;2.85;;;9.80;99.90;;;-144.20;100.00;62730.56;4169388;28;20052;-74
2023/12/23 00:47:55;;;;;;;9.00;2.58;;;9.80;99.90;;;-144.20;100.00;62730.56;4168894;28;20025;-74
2023/12/23 00:49:56;;;;;;;7.47;2.90;;;9.80;99.90;;;-144.20;100.00;62730.56;4169207;28;20032;-74
2023/12/23 00:51:59;;;;;;;7.28;2.13;;;9.90;99.90;;;-144.20;100.00;62730.56;4166089;28;20017;-73
2023/12/23 00:54:00;;;;;;;9.82;2.65;;;9.90;99.90;;;-144.20;100.00;62730.56;4167955;28;20516;-74
2023/12/23 00:56:00;;;;;;;11.35;3.80;;;9.90;99.90;;;-144.20;100.00;62730.56;4169221;28;20033;-73
2023/12/23 00:58:01;;;;;;;13.60;2.45;;;9.90;99.90;;;-144.20;100.00;62730.56;4168981;28;20511;-73
2023/12/23 01:00:03;;;;;;;8.45;1.95;;;9.90;99.90;;;-144.20;100.00;62730.56;4167816;28;20389;-74
2023/12/23 01:02:04;;;;;;;9.40;3.00;;;9.90;99.90;;;-144.20;100.00;62730.56;4168636;28;20025;-73
2023/12/23 01:04:05;;;;;;;7.60;2.20;;;9.90;99.90;;;-144.20;100.00;62730.56;4168946;28;20036;-74
2023/12/23 01:06:06;;;;;;;7.97;1.70;;;9.90;99.90;;;-144.20;100.00;62730.56;4168857;28;20021;-73
2023/12/23 01:08:07;;;;;;;10.45;2.33;;;9.80;99.90;;;-144.20;100.00;62730.56;4167962;28;20022;-74
2023/12/23 01:10:08;;;;;;;7.47;1.58;;;9.80;99.90;;;-144.20;100.00;62730.56;4168456;28;20032;-74
2023/12/23 01:12:09;;;;;;;8.30;2.17;;;9.80;99.90;;;-144.20;100.00;62730.56;4160731;28;20025;-74
2023/12/23 01:14:09;;;;;;;6.82;1.85;;;9.80;99.90;;;-144.20;100.00;62730.56;4165318;28;20381;-73
2023/12/23 01:16:10;;;;;;;13.00;1.95;;;9.70;99.90;;;-144.20;100.00;62730.56;4168760;28;20064;-74
2023/12/23 01:18:11;;;;;;;10.10;2.70;;;9.70;99.90;;;-144.20;100.00;62730.56;4168346;28;20041;-74
2023/12/23 01:20:12;;;;;;;6.15;2.05;;;9.70;99.90;;;-144.20;100.00;62730.56;4167665;28;20118;-73
2023/12/23 01:22:13;;;;;;;13.93;2.78;;;9.60;99.90;;;-144.20;100.00;62730.56;4168561;28;20061;-74
2023/12/23 01:24:14;;;;;;;7.95;2.38;;;9.70;99.90;;;-144.20;100.00;62730.56;4167384;28;20033;-73
2023/12/23 01:26:15;;;;;;;10.75;3.42;;;9.60;99.90;;;-144.20;100.00;62730.56;4168863;28;20484;-74
2023/12/23 01:28:16;;;;;;;11.70;2.40;;;9.60;99.90;;;-144.20;100.00;62730.56;4183994;28;20021;-74
2023/12/23 01:30:17;;;;;;;10.40;3.45;;;9.60;99.90;;;-144.20;100.00;62730.56;4167590;28;20029;-74
2023/12/23 01:32:17;;;;;;;14.10;2.05;;;9.50;99.90;;;-144.20;100.00;62730.56;4200132;28;20083;-73
2023/12/23 01:34:18;;;;;;;8.07;2.03;;;9.40;99.90;;;-144.20;100.00;62730.56;4151132;28;20473;-74
2023/12/23 01:36:19;;;;;;;9.70;1.88;;;9.30;99.90;;;-144.20;100.00;62730.56;4160947;28;20025;-73
2023/12/23 01:38:20;;;;;;;8.10;2.22;;;9.20;99.90;;;-144.20;100.00;62730.56;4167370;28;20030;-73
2023/12/23 01:40:21;;;;;;;9.32;2.15;;;9.10;99.90;;;-144.20;100.00;62730.56;4200259;28;20032;-74
2023/12/23 01:42:21;;;;;;;10.75;2.10;;;9.10;99.90;;;-144.20;100.00;62730.56;4168469;28;20033;-73
2023/12/23 01:44:22;;;;;;;9.80;2.67;;;9.00;99.90;;;-144.20;100.00;62730.56;4167605;28;20030;-73
2023/12/23 01:46:23;;;;;;;10.57;1.85;;;8.90;99.90;;;-144.20;100.00;62730.56;4167483;28;20028;-73
2023/12/23 01:48:24;;;;;;;10.65;2.28;;;8.90;99.90;;;-144.20;100.00;62730.56;4183387;28;20077;-73
2023/12/23 01:50:27;;;;;;;5.75;1.45;;;8.80;99.90;;;-144.20;100.00;62730.56;4168590;28;20400;-73
2023/12/23 01:52:29;;;;;;;8.32;1.60;;;8.80;99.90;;;-144.20;100.00;62730.56;4168219;28;20033;-74
2023/12/23 01:54:30;;;;;;;13.55;2.35;;;8.80;99.90;;;-144.20;100.00;62730.56;4167605;28;20033;-74
2023/12/23 01:56:32;;;;;;;7.40;2.60;;;8.80;99.90;;;-144.20;100.00;62730.56;4167178;28;20505;-74
2023/12/23 01:58:34;;;;;;;9.98;1.98;;;8.90;99.90;;;-144.20;100.00;62730.56;4168245;28;20040;-73
2023/12/23 02:00:35;;;;;;;8.82;2.28;;;9.00;99.90;;;-144.20;100.00;62730.56;4157118;28;20088;-73
2023/12/23 02:02:38;;;;;;;8.63;2.10;;;9.10;99.90;;;-144.20;100.00;62730.56;4166880;28;20057;-74
2023/12/23 02:04:39;;;;;;;7.95;2.30;;;9.20;99.90;;;-144.20;100.00;62730.56;4150522;28;20022;-74
2023/12/23 02:06:40;;;;;;;7.90;2.35;;;9.30;99.90;;;-144.20;100.00;62730.56;4167228;28;20118;-74
2023/12/23 02:08:41;;;;;;;8.90;2.83;;;9.40;99.90;;;-144.20;100.00;62730.56;4167169;28;20091;-73
2023/12/23 02:10:42;;;;;;;5.60;1.50;;;9.40;99.90;;;-144.20;100.00;62730.56;4167338;28;20481;-74
2023/12/23 02:13:09;;;;;;;8.88;2.38;;;9.50;99.90;;;-144.20;100.00;62730.56;4168201;28;20037;-73
2023/12/23 02:15:14;;;;;;;7.47;1.40;;;9.60;99.90;;;-144.20;100.00;62730.56;4150265;28;20284;-73
2023/12/23 02:17:15;;;;;;;7.45;1.67;;;9.70;99.90;;;-144.20;100.00;62730.56;4162434;28;20098;-74
2023/12/23 02:19:15;;;;;;;9.93;2.78;;;9.70;99.90;;;-144.20;100.00;62730.56;4167062;28;20033;-74
2023/12/23 02:21:17;;;;;;;7.75;3.13;;;9.80;99.90;;;-144.20;100.00;62730.56;4185398;28;20494;-74
2023/12/23 02:23:18;;;;;;;6.75;1.30;;;9.80;99.90;;;-144.20;100.00;62730.56;4163038;28;20036;-73
2023/12/23 02:25:21;;;;;;;11.75;1.80;;;9.80;99.90;;;-144.20;100.00;62730.56;4171489;28;20026;-73
2023/12/23 02:27:29;;;;;;;11.80;2.35;;;9.90;99.90;;;-144.20;100.00;62730.56;4169842;28;20044;-73
2023/12/23 02:29:31;;;;;;;7.95;1.60;;;9.90;99.90;;;-144.20;100.00;62730.56;4159637;28;20033;-73
2023/12/23 02:31:34;;;;;;;10.50;2.35;;;10.00;99.90;;;-144.20;100.00;62730.56;4203180;28;20040;-73
2023/12/23 02:33:34;;;;;;;10.77;1.85;;;10.00;99.90;;;-144.20;100.00;62730.56;4169992;28;20029;-73
2023/12/23 02:35:35;;;;;;;9.50;1.42;;;10.00;99.90;;;-144.20;100.00;62730.56;4169969;28;20034;-74
2023/12/23 02:37:36;;;;;;;9.43;1.80;;;10.00;99.90;;;-144.20;100.00;62730.56;4170063;28;20127;-73
2023/12/23 02:39:37;;;;;;;9.18;1.60;;;10.00;99.90;;;-144.20;100.00;62730.56;4170033;28;20029;-74
2023/12/23 02:41:38;;;;;;;12.52;1.70;;;10.00;99.90;;;-144.20;100.00;62730.56;4168801;28;20036;-74
2023/12/23 02:43:39;;;;;;;7.50;1.55;;;10.00;99.90;;;-144.20;100.00;62730.56;4170315;28;20490;-74
2023/12/23 02:45:40;;;;;;;10.45;1.52;;;10.10;99.90;;;-144.20;100.00;62730.56;4169746;28;20091;-74
2023/12/23 02:47:40;;;;;;;6.43;1.52;;;10.10;99.90;;;-144.20;100.00;62730.56;4170901;28;20025;-73
2023/12/23 02:49:41;;;;;;;8.35;1.75;;;10.10;99.90;;;-144.20;100.00;62730.56;4170977;28;20025;-74
2023/12/23 02:51:42;;;;;;;10.18;1.25;;;10.00;99.90;;;-144.20;100.00;62730.56;4169352;28;20554;-73
2023/12/23 02:53:43;;;;;;;7.93;0.93;;;10.00;99.90;;;-144.20;100.00;62730.56;4170965;28;20025;-74
2023/12/23 02:55:44;;;;;;;6.35;1.42;;;10.00;99.90;;;-144.20;100.00;62730.56;4169791;28;20028;-73
2023/12/23 02:57:44;;;;;;;13.70;2.42;;;10.00;99.90;;;-144.20;100.00;62730.56;4170884;28;20029;-74
2023/12/23 02:59:45;;;;;;;7.70;1.80;;;10.00;99.90;;;-144.20;100.00;62730.56;4170726;28;20026;-73
2023/12/23 03:01:46;;;;;;;5.80;1.83;;;9.90;99.90;;;-144.20;100.00;62730.56;4166391;28;20418;-73
2023/12/23 03:03:47;;;;;;;5.57;2.00;;;9.90;99.90;;;-144.20;100.00;62730.56;4162197;28;20029;-73
2023/12/23 03:05:48;;;;;;;12.50;2.58;;;9.90;99.90;;;-144.20;100.00;62730.56;4202741;28;20020;-73
2023/12/23 03:07:49;;;;;;;7.93;2.55;;;9.80;99.90;;;-144.20;100.00;62730.56;4202577;28;20016;-74
2023/12/23 03:09:49;;;;;;;8.10;2.38;;;9.80;99.90;;;-144.20;100.00;62730.56;4170764;28;20432;-74
2023/12/23 03:11:50;;;;;;;9.13;1.98;;;9.80;99.90;;;-144.20;100.00;62730.56;4165629;28;20014;-74
2023/12/23 03:13:52;;;;;;;5.97;1.75;;;9.90;99.90;;;-144.20;100.00;62730.56;4164533;28;20030;-74
2023/12/23 03:15:53;;;;;;;9.65;2.75;;;9.90;99.90;;;-144.20;100.00;62730.56;4170662;28;20022;-73
2023/12/23 03:17:54;;;;;;;10.35;2.10;;;9.90;99.90;;;-144.20;100.00;62730.56;4170351;28;20064;-74
2023/12/23 03:19:55;;;;;;;13.40;1.98;;;10.00;99.90;;;-144.20;100.00;62730.56;4169413;28;20032;-73
2023/12/23 03:21:56;;;;;;;9.82;2.53;;;10.00;99.90;;;-144.20;100.00;62730.56;4170364;28;20109;-74
2023/12/23 03:23:57;;;;;;;6.07;1.55;;;10.00;99.90;;;-144.20;100.00;62730.56;4169462;28;20443;-74
2023/12/23 03:25:57;;;;;;;13.02;1.55;;;10.10;99.90;;;-144.20;100.00;62730.56;4169302;28;20108;-73
2023/12/23 03:27:58;;;;;;;9.43;2.47;;;10.10;99.90;;;-144.20;100.00;62730.56;4169280;28;20586;-74
2023/12/23 03:29:59;;;;;;;7.38;1.23;;;10.00;99.90;;;-144.20;100.00;62730.56;4202379;28;20565;-74
2023/12/23 03:32:00;;;;;;;4.18;1.10;;;10.00;99.90;;;-144.20;100.00;62730.56;4164934;28;20022;-74
2023/12/23 03:34:02;;;;;;;5.65;1.20;;;10.00;99.90;;;-144.20;100.00;62730.56;4184550;28;20029;-74
2023/12/23 03:36:03;;;;;;;8.15;1.50;;;9.90;99.90;;;-144.20;100.00;62730.56;4168996;28;20017;-74
2023/12/23 03:38:04;;;;;;;9.02;1.70;;;9.80;99.90;;;-144.20;100.00;62730.56;4170272;28;20071;-74
2023/12/23 03:40:07;;;;;;;8.77;2.05;;;9.70;99.90;;;-144.20;100.00;62730.56;4170180;28;20029;-74
2023/12/23 03:42:08;;;;;;;10.38;1.50;;;9.60;99.90;;;-144.20;100.00;62730.56;4165697;28;20033;-74
2023/12/23 03:44:08;;;;;;;9.00;2.00;;;9.50;99.90;;;-144.20;100.00;62730.56;4170176;28;20021;-74
2023/12/23 03:46:09;;;;;;;6.07;1.55;;;9.50;99.90;;;-144.20;100.00;62730.56;4152662;28;20022;-74
2023/12/23 03:48:10;;;;;;;3.53;1.60;;;9.50;99.90;;;-144.20;100.00;62730.56;4169938;28;20087;-74
2023/12/23 03:50:11;;;;;;;9.70;2.58;;;9.50;99.90;;;-144.20;100.00;62730.56;4170258;28;20018;-74
2023/12/23 03:52:12;;;;;;;6.35;2.58;;;9.50;99.90;;;-144.20;100.00;62730.56;4178758;28;20401;-73
2023/12/23 03:54:13;;;;;;;7.90;2.17;;;9.60;99.90;;;-144.20;100.00;62730.56;4170107;28;20025;-74
2023/12/23 03:56:13;;;;;;;9.18;2.40;;;9.60;99.90;;;-144.20;100.00;62730.56;4168868;28;20072;-74
2023/12/23 03:58:14;;;;;;;12.05;2.95;;;9.60;99.90;;;-144.20;100.00;62730.56;4169154;28;20022;-74
2023/12/23 04:00:16;;;;;;;7.30;2.08;;;9.60;99.90;;;-144.20;100.00;62730.56;4170137;28;20018;-74
2023/12/23 04:02:17;;;;;;;7.57;1.90;;;9.70;99.90;;;-144.20;100.00;62730.56;4163122;28;20385;-74
2023/12/23 04:04:18;;;;;;;9.15;1.38;;;9.70;99.90;;;-144.20;100.00;62730.56;4197056;28;20028;-74
2023/12/23 04:06:18;;;;;;;13.93;2.60;;;9.70;99.90;;;-144.20;100.00;62730.56;4168459;28;20547;-73
2023/12/23 04:08:20;;;;;;;6.60;1.52;;;9.70;99.90;;;-144.20;100.00;62730.56;4168423;28;20040;-74
2023/12/23 04:10:20;;;;;;;8.93;1.50;;;9.60;99.90;;;-144.20;100.00;62730.56;4201982;28;20021;-74
2023/12/23 04:12:21;;;;;;;7.35;1.15;;;9.60;99.90;;;-144.20;100.00;62730.56;4161673;28;20026;-74
2023/12/23 04:14:22;;;;;;;6.57;1.95;;;9.50;99.90;;;-144.20;100.00;62730.56;4182869;28;20392;-74
2023/12/23 04:16:23;;;;;;;6.20;1.77;;;9.50;99.90;;;-144.20;100.00;62730.56;4169718;28;20029;-74
2023/12/23 04:18:24;;;;;;;6.57;1.27;;;9.50;99.90;;;-144.20;100.00;62730.56;4151586;28;20565;-74
2023/12/23 04:20:25;;;;;;;11.98;2.38;;;9.40;99.90;;;-144.20;100.00;62730.56;4168795;28;20033;-74
2023/12/23 04:22:26;;;;;;;7.85;2.17;;;9.40;99.90;;;-144.20;100.00;62730.56;4169505;28;20032;-74
2023/12/23 04:24:26;;;;;;;8.15;1.92;;;9.30;99.90;;;-144.20;100.00;62730.56;4169592;28;20037;-74
2023/12/23 04:26:29;;;;;;;3.72;1.02;;;9.30;99.90;;;-144.20;100.00;62730.56;4168256;28;20529;-73
2023/12/23 04:28:29;;;;;;;8.82;1.60;;;9.30;99.90;;;-144.20;100.00;62730.56;4201210;28;20476;-73
2023/12/23 04:30:30;;;;;;;9.35;2.00;;;9.30;99.90;;;-144.20;100.00;62730.56;4168061;28;20037;-74
2023/12/23 04:32:31;;;;;;;12.00;2.60;;;9.30;99.90;;;-144.20;100.00;62730.56;4163412;28;20029;-74
2023/12/23 04:34:32;;;;;;;10.98;1.60;;;9.30;99.90;;;-144.20;100.00;62730.56;4169171;28;20033;-73
2023/12/23 04:36:33;;;;;;;12.07;2.05;;;9.20;99.90;;;-144.20;100.00;62730.56;4168362;28;20033;-74
2023/12/23 04:38:35;;;;;;;5.28;1.50;;;9.20;99.90;;;-144.20;100.00;62730.56;4169305;28;20030;-73
2023/12/23 04:40:35;;;;;;;11.55;1.98;;;9.20;99.90;;;-144.20;100.00;62730.56;4168163;28;20036;-73
2023/12/23 04:42:36;;;;;;;5.75;2.17;;;9.30;99.90;;;-144.20;100.00;62730.56;4165967;28;20021;-73
2023/12/23 04:44:37;;;;;;;7.93;2.42;;;9.30;99.90;;;-144.20;100.00;62730.56;4168564;28;20029;-74
2023/12/23 04:46:38;;;;;;;6.93;2.25;;;9.40;99.90;;;-144.20;100.00;62730.56;4168007;28;20018;-74
2023/12/23 04:48:39;;;;;;;7.85;2.00;;;9.40;99.90;;;-144.20;100.00;62730.56;4168250;28;20093;-74
2023/12/23 04:50:40;;;;;;;8.50;2.03;;;9.50;99.90;;;-144.20;100.00;62730.56;4168258;28;20018;-74
2023/12/23 04:52:41;;;;;;;10.35;1.58;;;9.50;99.90;;;-144.20;100.00;62730.56;4167509;28;20037;-73
2023/12/23 04:54:41;;;;;;;3.67;1.15;;;9.50;99.90;;;-144.20;100.00;62730.56;4167852;28;20445;-73
2023/12/23 04:56:42;;;;;;;6.38;1.33;;;9.60;99.90;;;-144.20;100.00;62730.56;4169038;28;20048;-74
2023/12/23 04:58:43;;;;;;;6.97;1.63;;;9.60;99.90;;;-144.20;100.00;62730.56;4184233;28;20029;-74
2023/12/23 05:00:44;;;;;;;7.03;1.98;;;9.60;99.90;;;-144.20;100.00;62730.56;4168908;28;20033;-74
2023/12/23 05:02:45;;;;;;;8.63;1.63;;;9.60;99.90;;;-144.20;100.00;62730.56;4159246;28;20088;-74
2023/12/23 05:04:46;;;;;;;7.68;1.95;;;9.70;99.90;;;-144.20;100.00;62730.56;4168068;28;20033;-74
2023/12/23 05:06:47;;;;;;;5.15;1.98;;;9.70;99.90;;;-144.20;100.00;62730.56;4200752;28;20033;-73
2023/12/23 05:08:47;;;;;;;5.88;1.60;;;9.70;99.90;;;-144.20;100.00;62730.56;4169113;28;20034;-73
2023/12/23 05:10:48;;;;;;;6.53;1.55;;;9.70;99.90;;;-144.20;100.00;62730.56;4168892;28;20025;-73
2023/12/23 05:12:49;;;;;;;6.97;1.70;;;9.70;99.90;;;-144.20;100.00;62730.56;4160683;28;20045;-73
2023/12/23 05:14:51;;;;;;;6.28;1.17;;;9.80;99.90;;;-144.20;100.00;62730.56;4167689;28;20537;-74
2023/12/23 05:16:52;;;;;;;5.80;1.75;;;9.80;99.90;;;-144.20;100.00;62730.56;4167323;28;20044;-74
2023/12/23 05:18:52;;;;;;;6.32;1.65;;;9.80;99.90;;;-144.20;100.00;62730.56;4168839;28;20025;-74
2023/12/23 05:20:54;;;;;;;5.85;1.58;;;9.80;99.90;;;-144.20;100.00;62730.56;4151018;28;20123;-74
2023/12/23 05:22:54;;;;;;;9.02;1.50;;;9.90;99.90;;;-144.20;100.00;62730.56;4167479;28;20022;-74
2023/12/23 05:24:55;;;;;;;4.75;1.23;;;9.90;99.90;;;-144.20;100.00;62730.56;4168916;28;20037;-73
2023/12/23 05:26:56;;;;;;;4.38;1.50;;;9.90;99.90;;;-144.20;100.00;62730.56;4168912;28;20044;-74
2023/12/23 05:28:57;;;;;;;9.05;1.50;;;9.90;99.90;;;-144.20;100.00;62730.56;4168601;28;20492;-74
2023/12/23 05:30:58;;;;;;;5.93;1.15;;;9.90;99.90;;;-144.20;100.00;62730.56;4167380;28;20029;-74
2023/12/23 05:32:59;;;;;;;8.38;2.20;;;9.90;99.90;;;-144.20;100.00;62730.56;4167200;28;20034;-74
2023/12/23 05:34:59;;;;;;;8.35;1.90;;;9.80;99.90;;;-144.20;100.00;62730.56;4168675;28;20029;-74
2023/12/23 05:37:01;;;;;;;14.55;2.05;;;9.90;99.90;;;-144.20;100.00;62730.56;4167461;28;20029;-74
2023/12/23 05:39:02;;;;;;;6.35;1.45;;;9.80;99.90;;;-144.20;100.00;62730.56;4168821;28;20530;-73
2023/12/23 05:41:03;;;;;;;5.07;1.80;;;9.80;99.90;;;-144.20;100.00;62730.56;4168929;28;20119;-74
2023/12/23 05:43:04;;;;;;;9.50;1.83;;;9.80;99.90;;;-144.20;100.00;62730.56;4168484;28;20030;-74
2023/12/23 05:45:05;;;;;;;7.38;2.13;;;9.70;99.90;;;-144.20;100.00;62730.56;4168515;28;20025;-73
2023/12/23 05:47:06;;;;;;;6.90;1.70;;;9.70;99.90;;;-144.20;100.00;62730.56;4170946;28;20104;-74
2023/12/23 05:49:07;;;;;;;8.02;1.38;;;9.70;99.90;;;-144.20;100.00;62730.56;4167488;28;20072;-74
2023/12/23 05:51:11;;;;;;;7.13;1.90;;;9.70;99.90;;;-144.20;100.00;62730.56;4167399;28;20025;-74
2023/12/23 05:53:11;;;;;;;8.52;2.00;;;9.70;99.90;;;-144.20;100.00;62730.56;4166839;28;20025;-74
2023/12/23 05:55:13;;;;;;;7.45;1.38;;;9.70;99.90;;;-144.20;100.00;62730.56;4167680;28;20036;-74
2023/12/23 05:57:13;;;;;;;5.47;1.85;;;9.70;99.90;;;-144.20;100.00;62730.56;4170214;28;20083;-74
2023/12/23 05:59:14;;;;;;;6.15;1.70;;;9.70;99.90;;;-144.20;100.00;62730.56;4171920;28;20025;-74
2023/12/23 06:01:15;;;;;;;8.68;1.77;;;9.70;99.90;;;-144.20;100.00;62730.56;4171714;28;20033;-74
2023/12/23 06:03:16;;;;;;;7.90;1.55;;;9.70;99.90;;;-144.20;100.00;62730.56;4170148;28;20029;-74
2023/12/23 06:05:17;;;;;;;8.15;1.45;;;9.70;99.90;;;-144.20;100.00;62730.56;4171770;28;20116;-74
2023/12/23 06:07:18;;;;;;;6.53;1.58;;;9.80;99.90;;;-144.20;100.00;62730.56;4186926;28;20021;-74
2023/12/23 06:09:19;;;;;;;4.75;1.30;;;9.80;99.90;;;-144.20;100.00;62730.56;4170434;28;20575;-74
2023/12/23 06:11:19;;;;;;;2.90;1.05;;;9.80;99.90;;;-144.20;100.00;62730.56;4171575;28;20448;-74
2023/12/23 06:13:21;;;;;;;4.13;1.23;;;9.80;99.90;;;-144.20;100.00;62730.56;4163319;28;20448;-74
2023/12/23 06:15:22;;;;;;;5.20;1.05;;;9.90;99.90;;;-144.20;100.00;62730.56;4171650;28;20036;-74
2023/12/23 06:17:22;;;;;;;4.65;0.90;;;9.90;99.90;;;-144.20;100.00;62730.56;4171082;28;20501;-74
2023/12/23 06:19:23;;;;;;;3.97;0.90;;;9.90;99.90;;;-144.20;100.00;62730.56;4171500;28;20548;-74
2023/12/23 06:21:24;;;;;;;7.53;1.52;;;9.90;99.90;;;-144.20;100.00;62730.56;4153831;28;20034;-74
2023/12/23 06:23:25;;;;;;;3.65;0.77;;;9.90;99.90;;;-144.20;100.00;62730.56;4171222;28;20400;-74
2023/12/23 06:25:26;;;;;;;4.80;1.13;;;10.00;99.90;;;-144.20;100.00;62730.56;4171318;28;20033;-74
2023/12/23 06:27:27;;;;;;;6.60;1.33;;;10.00;99.90;;;-144.20;100.00;62730.56;4171206;28;20469;-73
2023/12/23 06:29:30;;;;;;;8.60;0.85;;;10.00;99.90;;;-144.20;100.00;62730.56;4170155;28;20032;-74
2023/12/23 06:31:31;;;;;;;6.55;0.85;;;10.00;99.90;;;-144.20;100.00;62730.56;4171230;28;20481;-73
2023/12/23 06:33:32;;;;;;;5.55;0.90;;;10.00;99.90;;;-144.20;100.00;62730.56;4169179;28;20433;-74
2023/12/23 06:35:33;;;;;;;4.07;0.85;;;10.00;99.90;;;-144.20;100.00;62730.56;4171058;28;20083;-73
2023/12/23 06:37:34;;;;;;;3.38;0.70;;;10.00;99.90;;;-144.20;100.00;62730.56;4170069;28;20045;-74
2023/12/23 06:39:35;;;;;;;3.45;1.02;;;10.10;99.90;;;-144.20;100.00;62730.56;4153504;28;20033;-73
2023/12/23 06:41:36;;;;;;;6.20;0.88;;;10.00;99.90;;;-144.20;100.00;62730.56;4153766;28;20030;-73
2023/12/23 06:43:36;;;;;;;3.00;0.60;;;10.10;99.90;;;-144.20;100.00;62730.56;4169352;28;20017;-74
2023/12/23 06:45:37;;;;;;;6.32;1.00;;;10.10;99.90;;;-144.20;100.00;62730.56;4171154;28;20029;-73
2023/12/23 06:47:38;;;;;;;11.90;1.88;;;10.10;99.90;;;-144.20;100.00;62730.56;4169647;28;20052;-74
2023/12/23 06:49:39;;;;;;;5.63;1.38;;;10.10;99.90;;;-144.20;100.00;62730.56;4171056;28;20500;-74
2023/12/23 06:51:40;;;;;;;7.25;0.80;;;10.10;99.90;;;-144.20;100.00;62730.56;4153056;28;20026;-74
2023/12/23 06:53:40;;;;;;;6.13;1.55;;;10.10;99.90;;;-144.20;100.00;62730.56;4169540;28;20033;-74
2023/12/23 06:55:41;;;;;;;3.33;1.13;;;10.10;99.90;;;-144.20;100.00;62730.56;4170897;28;20033;-74
2023/12/23 06:57:42;;;;;;;4.35;0.60;;;10.10;99.90;;;-144.20;100.00;62730.56;4170891;28;20034;-74
2023/12/23 06:59:46;;;;;;;4.78;0.80;;;10.10;99.90;;;-144.20;100.00;62730.56;4169533;28;20025;-74
2023/12/23 07:01:47;;;;;;;6.80;1.27;;;10.10;99.90;;;-144.20;100.00;62730.56;4170725;28;20445;-74
2023/12/23 07:03:47;;;;;;;5.10;0.70;;;10.10;99.90;;;-144.20;100.00;62730.56;4169447;28;20033;-74
2023/12/23 07:05:48;;;;;;;3.78;1.23;;;10.10;99.90;;;-144.20;100.00;62730.56;4170790;28;20060;-74
2023/12/23 07:07:49;;;;;;;7.30;1.30;;;10.20;99.90;;;-144.20;100.00;62730.56;4168542;28;20022;-74
2023/12/23 07:09:50;;;;;;;6.03;1.30;;;10.20;99.90;;;-144.20;100.00;62730.56;4152999;28;20026;-73
2023/12/23 07:11:51;;;;;;;4.60;1.00;;;10.20;99.90;;;-144.20;100.00;62730.56;4170743;28;20497;-74
2023/12/23 07:13:52;;;;;;;5.05;1.00;;;10.20;99.90;;;-144.20;100.00;62730.56;4164622;28;20030;-74
2023/12/23 07:15:53;;;;;;;10.93;1.92;;;10.20;99.90;;;-144.20;100.00;62730.56;4169386;28;20035;-74
2023/12/23 07:17:54;;;;;;;4.85;1.52;;;10.20;99.90;;;-144.20;100.00;62730.56;4168976;28;20057;-74
2023/12/23 07:19:54;;;;;;;7.63;1.20;;;10.20;99.90;;;-144.20;100.00;62730.56;4169378;28;20025;-74
2023/12/23 07:21:55;;;;;;;4.78;0.80;;;10.20;99.90;;;-144.20;100.00;62730.56;4170472;28;20083;-74
2023/12/23 07:23:56;;;;;;;6.40;1.08;;;10.10;99.90;;;-144.20;100.00;62730.56;4169143;28;20028;-73
2023/12/23 07:25:57;;;;;;;4.40;1.25;;;10.10;99.90;;;-144.20;100.00;62730.56;4169349;28;20041;-74
2023/12/23 07:27:58;;;;;;;5.10;1.10;;;10.20;99.90;;;-144.20;100.00;62730.56;4169203;28;20568;-74
2023/12/23 07:29:59;;;;;;;7.13;1.23;;;10.10;99.90;;;-144.20;100.00;62730.56;4202076;28;20538;-74
2023/12/23 07:32:00;;;;;;;4.88;1.17;;;10.20;99.90;;;-144.20;100.00;62730.56;4169260;28;20030;-74
2023/12/23 07:34:02;;;;;;;4.90;0.85;;;10.10;99.90;;;-144.20;100.00;62730.56;4185345;28;20104;-74
2023/12/23 07:36:03;;;;;;;5.63;0.73;;;10.10;99.90;;;-144.20;100.00;62730.56;4169173;28;20108;-74
2023/12/23 07:38:05;;;;;;;3.58;0.60;;;10.10;99.90;;;-144.20;100.00;62730.56;4170291;28;20059;-74
2023/12/23 07:40:07;;;;;;;3.90;0.60;;;10.10;99.90;;;-144.20;100.00;62730.56;4170357;28;20025;-74
2023/12/23 07:42:08;;;;;;;1.75;0.50;;;10.10;99.90;;;-144.20;100.00;62730.56;4170334;28;20552;-74
2023/12/23 07:44:09;;;;;;;6.05;0.73;;;10.10;99.90;;;-144.20;100.00;62730.56;4170251;28;20067;-73
2023/12/23 07:46:11;;;;;;;2.33;0.73;;;10.10;99.90;;;-144.20;100.00;62730.56;4169055;28;20026;-74
2023/12/23 07:48:12;;;;;;;2.20;0.50;;;10.10;99.90;;;-144.20;100.00;62730.56;4169822;28;20017;-74
2023/12/23 07:50:13;;;;;;;2.35;0.70;;;10.10;99.90;;;-144.20;100.00;62730.56;4152239;28;20034;-74
2023/12/23 07:52:14;;;;;;;4.22;0.60;;;10.10;99.90;;;-144.20;100.00;62730.56;4169928;28;20013;-74
2023/12/23 07:54:15;;;;;;;2.55;0.47;;;10.10;99.90;;;-144.20;100.00;62730.56;4168831;28;20026;-73
2023/12/23 07:56:16;;;;;;;2.75;1.08;;;10.10;99.90;;;-144.20;100.00;62730.56;4169923;28;20100;-74
2023/12/23 07:58:16;;;;;;;2.75;0.50;;;10.10;99.90;;;-144.20;100.00;62730.56;4168779;28;20402;-74
2023/12/23 08:00:17;;;;;;;3.00;0.80;;;10.10;99.90;;;-144.20;100.00;62730.56;4168284;28;20072;-74
2023/12/23 08:02:19;;;;;;;2.92;0.80;;;10.10;99.90;;;-144.20;100.00;62730.56;4169401;28;20017;-74
2023/12/23 08:04:20;;;;;;;2.25;1.15;;;10.10;99.90;;;-144.20;100.00;62730.56;4169965;28;20037;-74
2023/12/23 08:06:22;;;;;;;3.38;1.10;;;10.10;99.90;;;-144.20;100.00;62730.56;4201715;28;20040;-74
2023/12/23 08:08:23;;;;;;;2.95;1.63;;;10.20;99.90;;;-144.20;100.00;62730.56;4168688;28;20022;-74
2023/12/23 08:10:24;;;;;;;5.63;2.08;;;10.20;99.90;;;-144.20;100.00;62730.56;4168792;28;20052;-74
2023/12/23 08:12:25;;;;;;;3.10;1.92;;;10.20;99.90;;;-144.20;100.00;62730.56;4164782;28;20051;-74
2023/12/23 08:14:26;;;;;;;6.28;2.53;;;10.20;99.90;;;-144.20;100.00;62730.56;4199552;28;20039;-74
2023/12/23 08:16:26;;;;;;;3.35;0.95;;;10.20;99.90;;;-144.20;100.00;62730.56;4169531;28;20021;-74